Time;durP1;ratioP1;P1;durP2;ratioP2;P2;SDS_P1;SDS_P2;PMS_P1;PMS_P2;Temp;Humidity;BMP_temperature;BMP_pressure;BME280_temperature;BME280_humidity;BME280_pressure;Samples;Min_cycle;Max_cycle;Signal;HPM_P1;HPM_P2
2022/05/29 00:00:50;;;;;;;0.20;0.20;;;;;;;;;;5015428;28;20025;-74
2022/05/29 00:03:15;;;;;;;0.20;0.20;;;;;;;;;;5007871;28;20103;-74
2022/05/29 00:05:41;;;;;;;0.10;0.10;;;;;;;;;;5034000;28;20025;-74
2022/05/29 00:08:09;;;;;;;0.10;0.10;;;;;;;;;;5051545;28;20068;-74
2022/05/29 00:10:35;;;;;;;0.20;0.20;;;;;;;;;;5051472;28;20025;-75
2022/05/29 00:13:01;;;;;;;0.10;0.10;;;;;;;;;;5051459;28;20037;-74
2022/05/29 00:15:26;;;;;;;0.20;0.20;;;;;;;;;;5050384;28;20040;-74
2022/05/29 00:17:52;;;;;;;0.20;0.20;;;;;;;;;;5051523;28;20029;-74
2022/05/29 00:20:17;;;;;;;0.10;0.10;;;;;;;;;;5050316;28;20033;-74
2022/05/29 00:22:43;;;;;;;0.20;0.20;;;;;;;;;;5050789;28;20491;-74
2022/05/29 00:25:10;;;;;;;0.38;0.38;;;;;;;;;;5051354;28;20391;-73
2022/05/29 00:27:35;;;;;;;0.20;0.20;;;;;;;;;;5054138;28;20056;-74
2022/05/29 00:30:02;;;;;;;0.20;0.20;;;;;;;;;;5054763;28;20017;-74
2022/05/29 00:32:28;;;;;;;0.17;0.17;;;;;;;;;;5054996;28;20037;-73
2022/05/29 00:34:53;;;;;;;0.20;0.20;;;;;;;;;;5037083;28;20147;-74
2022/05/29 00:37:19;;;;;;;0.10;0.10;;;;;;;;;;5054856;28;20388;-74
2022/05/29 00:39:45;;;;;;;0.20;0.20;;;;;;;;;;5054822;28;20044;-74
2022/05/29 00:42:13;;;;;;;0.20;0.20;;;;;;;;;;5054319;28;20033;-74
2022/05/29 00:44:39;;;;;;;0.20;0.20;;;;;;;;;;5032868;28;20037;-73
2022/05/29 00:47:12;;;;;;;0.20;0.20;;;;;;;;;;5034957;28;20433;-74
2022/05/29 00:49:38;;;;;;;0.10;0.10;;;;;;;;;;5035066;28;20025;-75
2022/05/29 00:52:05;;;;;;;0.20;0.20;;;;;;;;;;5034581;28;20029;-74
2022/05/29 00:54:37;;;;;;;0.20;0.20;;;;;;;;;;5018826;28;20465;-74
2022/05/29 00:57:03;;;;;;;0.20;0.20;;;;;;;;;;5034479;28;20400;-74
2022/05/29 00:59:31;;;;;;;0.20;0.20;;;;;;;;;;5016803;28;20041;-73
2022/05/29 01:01:58;;;;;;;0.13;0.13;;;;;;;;;;5033140;28;20042;-74
2022/05/29 01:04:24;;;;;;;0.20;0.20;;;;;;;;;;5034661;28;20025;-73
2022/05/29 01:06:52;;;;;;;0.20;0.20;;;;;;;;;;5033573;28;20045;-74
2022/05/29 01:09:17;;;;;;;0.20;0.20;;;;;;;;;;5038719;28;20035;-72
2022/05/29 01:11:43;;;;;;;0.20;0.20;;;;;;;;;;5036837;28;20136;-73
2022/05/29 01:14:08;;;;;;;0.10;0.10;;;;;;;;;;5054296;28;20029;-75
2022/05/29 01:16:37;;;;;;;0.15;0.15;;;;;;;;;;5054425;28;20028;-73
2022/05/29 01:19:21;;;;;;;0.13;0.13;;;;;;;;;;5054278;28;20037;-73
2022/05/29 01:21:50;;;;;;;0.20;0.20;;;;;;;;;;5036349;28;20091;-73
2022/05/29 01:24:36;;;;;;;0.17;0.17;;;;;;;;;;5051707;28;20559;-73
2022/05/29 01:27:01;;;;;;;0.10;0.10;;;;;;;;;;5054157;28;20033;-74
2022/05/29 01:29:51;;;;;;;0.20;0.20;;;;;;;;;;5051683;28;20030;-73
2022/05/29 01:32:21;;;;;;;0.20;0.20;;;;;;;;;;5053043;28;20400;-73
2022/05/29 01:34:53;;;;;;;0.20;0.20;;;;;;;;;;5035476;28;20028;-75
2022/05/29 01:37:28;;;;;;;0.20;0.20;;;;;;;;;;5043889;28;20044;-75
2022/05/29 01:39:59;;;;;;;0.20;0.20;;;;;;;;;;5053498;28;20033;-75
2022/05/29 01:42:34;;;;;;;0.13;0.13;;;;;;;;;;5036026;28;20480;-74
2022/05/29 01:45:04;;;;;;;0.10;0.10;;;;;;;;;;5053596;28;20082;-75
2022/05/29 01:47:59;;;;;;;0.20;0.20;;;;;;;;;;5053751;28;20037;-74
2022/05/29 01:50:35;;;;;;;0.20;0.20;;;;;;;;;;5023230;28;20037;-75
2022/05/29 01:53:20;;;;;;;0.20;0.20;;;;;;;;;;5035938;28;20036;-75
2022/05/29 01:55:49;;;;;;;0.15;0.15;;;;;;;;;;5035089;28;20080;-76
2022/05/29 01:58:17;;;;;;;0.20;0.20;;;;;;;;;;5053532;28;20033;-76
2022/05/29 02:00:45;;;;;;;0.20;0.20;;;;;;;;;;5053793;28;20032;-75
2022/05/29 02:03:10;;;;;;;0.20;0.20;;;;;;;;;;5053454;28;20036;-76
2022/05/29 02:05:48;;;;;;;0.20;0.20;;;;;;;;;;5053423;28;20503;-74
2022/05/29 02:08:32;;;;;;;0.20;0.20;;;;;;;;;;5035631;28;20079;-75
2022/05/29 02:11:02;;;;;;;0.13;0.13;;;;;;;;;;5031700;28;20124;-75
2022/05/29 02:13:37;;;;;;;0.10;0.10;;;;;;;;;;5033466;28;20151;-75
2022/05/29 02:16:41;;;;;;;0.20;0.20;;;;;;;;;;5015541;28;20040;-73
2022/05/29 02:19:10;;;;;;;0.20;0.20;;;;;;;;;;4972524;28;20056;-74
2022/05/29 02:21:41;;;;;;;0.20;0.20;;;;;;;;;;4972289;28;20039;-74
2022/05/29 02:24:10;;;;;;;0.20;0.20;;;;;;;;;;5005723;28;20045;-75
2022/05/29 02:26:39;;;;;;;0.20;0.20;;;;;;;;;;5035305;28;20043;-75
2022/05/29 02:29:04;;;;;;;;;;;;;;;;;;5035301;28;20029;-74
2022/05/29 02:31:39;;;;;;;0.20;0.20;;;;;;;;;;5053157;28;20003;-74
2022/05/29 02:34:08;;;;;;;0.30;0.30;;;;;;;;;;5052995;28;20033;-75
2022/05/29 02:36:52;;;;;;;0.20;0.20;;;;;;;;;;5053095;28;20033;-75
2022/05/29 02:39:36;;;;;;;0.10;0.10;;;;;;;;;;5051860;28;20035;-75
2022/05/29 02:42:14;;;;;;;0.13;0.13;;;;;;;;;;5052670;28;20439;-75
2022/05/29 02:44:45;;;;;;;0.20;0.20;;;;;;;;;;5053279;28;20480;-75
2022/05/29 02:47:11;;;;;;;0.17;0.17;;;;;;;;;;5053178;28;20083;-75
2022/05/29 02:49:42;;;;;;;0.20;0.20;;;;;;;;;;5052977;28;20024;-75
2022/05/29 02:52:10;;;;;;;0.10;0.10;;;;;;;;;;5035199;28;20477;-74
2022/05/29 02:54:36;;;;;;;0.10;0.10;;;;;;;;;;5052268;28;20029;-74
2022/05/29 02:57:02;;;;;;;0.20;0.20;;;;;;;;;;5052939;28;20521;-74
2022/05/29 02:59:54;;;;;;;0.20;0.20;;;;;;;;;;5052927;28;20033;-75
2022/05/29 03:02:37;;;;;;;0.20;0.20;;;;;;;;;;5029624;28;20056;-74
2022/05/29 03:05:21;;;;;;;0.20;0.20;;;;;;;;;;5049425;28;20041;-75
2022/05/29 03:07:55;;;;;;;0.20;0.20;;;;;;;;;;5049026;28;20474;-75
2022/05/29 03:10:26;;;;;;;0.10;0.10;;;;;;;;;;5048513;28;20448;-76
2022/05/29 03:12:58;;;;;;;0.20;0.20;;;;;;;;;;5030876;28;20089;-74
2022/05/29 03:15:30;;;;;;;0.20;0.20;;;;;;;;;;5048682;28;20552;-75
2022/05/29 03:18:08;;;;;;;0.20;0.20;;;;;;;;;;5048837;28;20499;-75
2022/05/29 03:20:40;;;;;;;0.10;0.10;;;;;;;;;;5049046;28;20036;-76
2022/05/29 03:23:19;;;;;;;0.20;0.20;;;;;;;;;;5048140;28;20069;-75
2022/05/29 03:25:45;;;;;;;;;;;;;;;;;;5032071;28;20057;-74
2022/05/29 03:28:18;;;;;;;0.20;0.20;;;;;;;;;;5048480;28;20298;-74
2022/05/29 03:30:45;;;;;;;0.20;0.20;;;;;;;;;;5047441;28;20361;-75
2022/05/29 03:33:14;;;;;;;0.65;0.65;;;;;;;;;;5048486;28;20534;-76
2022/05/29 03:35:43;;;;;;;0.30;0.30;;;;;;;;;;5030693;28;20052;-76
2022/05/29 03:38:09;;;;;;;1.48;1.38;;;;;;;;;;5048340;28;20025;-76
2022/05/29 03:40:34;;;;;;;0.20;0.20;;;;;;;;;;5030220;28;20451;-75
2022/05/29 03:43:00;;;;;;;48.05;8.40;;;;;;;;;;5048335;28;20037;-74
2022/05/29 03:45:26;;;;;;;0.38;0.38;;;;;;;;;;5048593;28;20032;-74
2022/05/29 03:47:52;;;;;;;7.32;3.72;;;;;;;;;;5030692;28;20036;-75
2022/05/29 03:50:19;;;;;;;1.05;1.05;;;;;;;;;;5029156;28;20477;-74
2022/05/29 03:52:45;;;;;;;0.10;0.10;;;;;;;;;;5047319;28;20029;-74
2022/05/29 03:55:12;;;;;;;0.43;0.43;;;;;;;;;;5030586;28;20433;-73
2022/05/29 03:57:38;;;;;;;0.60;0.60;;;;;;;;;;5048140;28;20025;-74
2022/05/29 04:00:05;;;;;;;0.13;0.13;;;;;;;;;;5047977;28;20025;-75
2022/05/29 04:02:39;;;;;;;0.10;0.10;;;;;;;;;;5050997;28;20049;-74
2022/05/29 04:05:05;;;;;;;0.10;0.10;;;;;;;;;;5033904;28;20123;-74
2022/05/29 04:12:59;;;;;;;0.17;0.17;;;;;;;;;;5051603;28;20480;-74
2022/05/29 04:15:25;;;;;;;0.20;0.20;;;;;;;;;;5033777;28;20036;-74
2022/05/29 04:17:51;;;;;;;0.20;0.20;;;;;;;;;;5033526;28;20032;-75
2022/05/29 04:20:17;;;;;;;0.10;0.10;;;;;;;;;;5033500;28;20112;-75
2022/05/29 04:22:43;;;;;;;0.10;0.10;;;;;;;;;;5051660;28;20037;-75
2022/05/29 04:25:09;;;;;;;0.13;0.13;;;;;;;;;;5033779;28;20119;-74
2022/05/29 04:27:34;;;;;;;0.20;0.20;;;;;;;;;;5051687;28;20032;-74
2022/05/29 04:30:00;;;;;;;0.30;0.30;;;;;;;;;;5051429;28;20384;-75
2022/05/29 04:35:09;;;;;;;0.20;0.20;;;;;;;;;;5050696;28;20127;-75
2022/05/29 04:37:35;;;;;;;0.20;0.20;;;;;;;;;;5051722;28;20115;-75
2022/05/29 04:40:01;;;;;;;0.20;0.20;;;;;;;;;;5050414;28;20957;-75
2022/05/29 04:42:26;;;;;;;0.20;0.20;;;;;;;;;;5051114;28;20049;-76
2022/05/29 04:44:51;;;;;;;0.10;0.10;;;;;;;;;;5033361;28;20029;-75
2022/05/29 04:47:17;;;;;;;0.20;0.20;;;;;;;;;;5042157;28;20032;-76
2022/05/29 04:49:42;;;;;;;0.20;0.20;;;;;;;;;;5051577;28;20476;-75
2022/05/29 04:52:09;;;;;;;0.20;0.20;;;;;;;;;;5048916;28;20037;-75
2022/05/29 04:54:35;;;;;;;0.20;0.20;;;;;;;;;;5032979;28;20527;-75
2022/05/29 04:57:01;;;;;;;0.20;0.20;;;;;;;;;;5051394;28;20108;-75
2022/05/29 04:59:26;;;;;;;0.22;0.22;;;;;;;;;;5050019;28;20108;-74
2022/05/29 05:01:52;;;;;;;0.20;0.20;;;;;;;;;;5049518;28;20037;-75
2022/05/29 05:04:18;;;;;;;0.20;0.20;;;;;;;;;;5050878;28;20029;-75
2022/05/29 05:06:43;;;;;;;0.20;0.20;;;;;;;;;;5051084;28;20039;-74
2022/05/29 05:09:09;;;;;;;0.20;0.20;;;;;;;;;;5029073;28;20088;-76
2022/05/29 05:11:34;;;;;;;0.55;0.55;;;;;;;;;;5032412;28;20544;-75
2022/05/29 05:14:00;;;;;;;0.20;0.20;;;;;;;;;;5049227;28;20065;-74
2022/05/29 05:16:25;;;;;;;0.20;0.20;;;;;;;;;;5050784;28;20067;-74
2022/05/29 05:18:51;;;;;;;0.70;0.70;;;;;;;;;;5033091;28;20091;-73
2022/05/29 05:21:16;;;;;;;1.73;0.75;;;;;;;;;;5049039;28;20498;-75
2022/05/29 05:23:42;;;;;;;2.92;2.72;;;;;;;;;;5049975;28;20095;-75
2022/05/29 05:26:12;;;;;;;0.30;0.30;;;;;;;;;;5032688;28;20108;-75
2022/05/29 05:28:38;;;;;;;0.20;0.20;;;;;;;;;;5032594;28;20033;-75
2022/05/29 05:31:04;;;;;;;0.52;0.52;;;;;;;;;;5049096;28;20033;-75
2022/05/29 05:33:29;;;;;;;2.85;2.25;;;;;;;;;;5050889;28;20044;-74
2022/05/29 05:35:56;;;;;;;8.80;1.08;;;;;;;;;;5050616;28;20496;-75
2022/05/29 05:38:21;;;;;;;6.55;4.40;;;;;;;;;;5050684;28;20123;-74
2022/05/29 05:40:47;;;;;;;3.58;3.47;;;;;;;;;;5049527;28;20257;-75
2022/05/29 05:43:12;;;;;;;0.50;0.50;;;;;;;;;;5050295;28;21069;-75
2022/05/29 05:45:42;;;;;;;2.25;2.15;;;;;;;;;;5032557;28;20020;-75
2022/05/29 05:48:08;;;;;;;1.48;1.38;;;;;;;;;;5050323;28;20037;-74
2022/05/29 05:50:34;;;;;;;6.63;3.45;;;;;;;;;;5050473;28;20511;-74
2022/05/29 05:52:59;;;;;;;1.20;1.20;;;;;;;;;;5030909;28;20427;-75
2022/05/29 05:55:25;;;;;;;6.78;2.15;;;;;;;;;;5050145;28;20024;-74
2022/05/29 05:57:52;;;;;;;0.20;0.20;;;;;;;;;;5032510;28;20036;-72
2022/05/29 06:00:18;;;;;;;0.20;0.20;;;;;;;;;;5031489;28;20061;-74
2022/05/29 06:02:44;;;;;;;0.28;0.28;;;;;;;;;;5050287;28;20150;-74
2022/05/29 06:05:10;;;;;;;0.20;0.20;;;;;;;;;;5050286;28;20056;-74
2022/05/29 06:07:36;;;;;;;0.20;0.20;;;;;;;;;;5048413;28;20171;-74
2022/05/29 06:10:01;;;;;;;0.20;0.20;;;;;;;;;;5048646;28;20111;-75
2022/05/29 06:12:27;;;;;;;5.13;4.70;;;;;;;;;;5050008;28;20106;-74
2022/05/29 06:14:54;;;;;;;0.20;0.20;;;;;;;;;;5049971;28;20166;-74
2022/05/29 06:17:20;;;;;;;0.28;0.28;;;;;;;;;;5016070;28;20061;-74
2022/05/29 06:19:45;;;;;;;0.47;0.47;;;;;;;;;;5031121;28;20106;-74
2022/05/29 06:22:11;;;;;;;0.55;0.50;;;;;;;;;;5049418;28;20033;-74
2022/05/29 06:24:36;;;;;;;4.13;2.15;;;;;;;;;;5048500;28;20033;-74
2022/05/29 06:27:02;;;;;;;0.98;0.85;;;;;;;;;;5031841;28;20551;-74
2022/05/29 06:29:28;;;;;;;0.40;0.40;;;;;;;;;;5049437;28;20031;-74
2022/05/29 06:31:59;;;;;;;0.60;0.60;;;;;;;;;;5049436;28;20480;-74
2022/05/29 06:34:24;;;;;;;0.40;0.40;;;;;;;;;;5049383;28;20036;-74
2022/05/29 06:36:50;;;;;;;0.65;0.57;;;;;;;;;;5049492;28;20154;-74
2022/05/29 06:39:15;;;;;;;1.13;1.02;;;;;;;;;;5048480;28;20052;-74
2022/05/29 06:41:41;;;;;;;1.95;1.60;;;;;;;;;;5049534;28;20099;-75
2022/05/29 06:44:07;;;;;;;0.28;0.28;;;;;;;;;;5031255;28;20127;-74
2022/05/29 06:46:32;;;;;;;0.20;0.20;;;;;;;;;;5047060;28;20064;-74
2022/05/29 06:48:57;;;;;;;0.50;0.50;;;;;;;;;;5050079;28;20373;-75
2022/05/29 06:51:23;;;;;;;0.20;0.20;;;;;;;;;;5046349;28;20117;-74
2022/05/29 06:53:49;;;;;;;0.20;0.20;;;;;;;;;;5026506;28;20037;-75
2022/05/29 06:56:17;;;;;;;0.20;0.20;;;;;;;;;;5041697;28;20361;-73
2022/05/29 06:58:42;;;;;;;0.20;0.20;;;;;;;;;;5027231;28;20030;-76
2022/05/29 07:09:21;;;;;;;0.40;0.40;;;;;;;;;;5026671;28;20041;-73
2022/05/29 07:11:48;;;;;;;0.20;0.20;;;;;;;;;;5011315;28;20029;-74
2022/05/29 07:14:15;;;;;;;0.30;0.30;;;;;;;;;;5028995;28;20037;-74
2022/05/29 07:16:40;;;;;;;0.22;0.22;;;;;;;;;;5030629;28;20021;-73
2022/05/29 07:19:06;;;;;;;0.38;0.38;;;;;;;;;;5033767;28;20060;-74
2022/05/29 07:21:36;;;;;;;0.20;0.20;;;;;;;;;;5028563;28;20483;-72
2022/05/29 07:24:02;;;;;;;0.40;0.40;;;;;;;;;;5010885;28;20033;-74
2022/05/29 07:26:27;;;;;;;0.20;0.20;;;;;;;;;;5028801;28;20025;-74
2022/05/29 07:28:53;;;;;;;0.20;0.20;;;;;;;;;;5037307;28;20033;-75
2022/05/29 07:31:18;;;;;;;0.20;0.20;;;;;;;;;;5044382;28;20037;-72
2022/05/29 07:33:44;;;;;;;0.30;0.30;;;;;;;;;;5047478;28;20041;-70
2022/05/29 07:36:10;;;;;;;0.28;0.28;;;;;;;;;;5047373;28;20056;-72
2022/05/29 07:38:36;;;;;;;0.20;0.20;;;;;;;;;;5046487;28;20120;-72
2022/05/29 07:43:18;;;;;;;0.43;0.43;;;;;;;;;;5039200;28;20079;-72
2022/05/29 07:43:47;;;;;;;0.20;0.20;;;;;;;;;;5028870;28;20072;-73
2022/05/29 07:46:13;;;;;;;0.75;0.75;;;;;;;;;;5028487;28;20077;-71
2022/05/29 07:48:38;;;;;;;0.20;0.20;;;;;;;;;;5028226;28;20056;-70
2022/05/29 07:51:04;;;;;;;0.10;0.10;;;;;;;;;;5010863;28;20031;-70
2022/05/29 07:53:30;;;;;;;1.20;0.98;;;;;;;;;;5028217;28;20041;-71
2022/05/29 07:55:55;;;;;;;0.30;0.30;;;;;;;;;;5028396;28;20025;-73
2022/05/29 07:58:21;;;;;;;0.28;0.28;;;;;;;;;;5028417;28;20029;-73
2022/05/29 08:00:46;;;;;;;1.67;1.17;;;;;;;;;;5028459;28;20021;-70
2022/05/29 08:03:11;;;;;;;0.20;0.20;;;;;;;;;;5032289;28;20444;-73
2022/05/29 08:05:38;;;;;;;1.65;1.05;;;;;;;;;;5034900;28;20393;-74
2022/05/29 08:08:04;;;;;;;0.20;0.20;;;;;;;;;;5010594;28;20104;-73
2022/05/29 08:10:31;;;;;;;0.80;0.75;;;;;;;;;;5031837;28;20422;-72
2022/05/29 08:12:56;;;;;;;0.20;0.20;;;;;;;;;;5046716;28;20040;-71
2022/05/29 08:15:21;;;;;;;1.65;1.55;;;;;;;;;;5048007;28;20029;-70
2022/05/29 08:17:47;;;;;;;0.77;0.77;;;;;;;;;;5046501;28;20032;-70
2022/05/29 08:20:14;;;;;;;4.50;2.60;;;;;;;;;;5042268;28;20101;-71
2022/05/29 08:22:40;;;;;;;2.97;1.75;;;;;;;;;;5044131;28;20045;-70
2022/05/29 08:30:47;;;;;;;3.63;1.20;;;;;;;;;;5030574;28;20090;-72
2022/05/29 08:33:30;;;;;;;0.35;0.35;;;;;;;;;;5022367;28;20033;-71
2022/05/29 08:36:00;;;;;;;0.10;0.10;;;;;;;;;;5047590;28;20041;-71
2022/05/29 08:38:26;;;;;;;0.28;0.28;;;;;;;;;;5047919;28;20097;-72
2022/05/29 08:40:54;;;;;;;1.13;0.90;;;;;;;;;;5030459;28;20097;-70
2022/05/29 08:43:27;;;;;;;0.30;0.30;;;;;;;;;;5047847;28;20048;-70
2022/05/29 08:45:53;;;;;;;1.67;0.85;;;;;;;;;;5030382;28;20044;-70
2022/05/29 08:48:19;;;;;;;9.70;1.60;;;;;;;;;;5049993;28;20429;-71
2022/05/29 08:50:48;;;;;;;1.48;1.17;;;;;;;;;;5051227;28;20037;-71
2022/05/29 08:53:27;;;;;;;19.13;3.92;;;;;;;;;;5051496;28;20064;-71
2022/05/29 08:55:53;;;;;;;;;;;;;;;;;;5017252;28;20036;-71
2022/05/29 08:58:21;;;;;;;0.10;0.10;;;;;;;;;;5050889;28;19912;-71
2022/05/29 09:01:04;;;;;;;1.33;0.98;;;;;;;;;;5048040;28;20055;-70
2022/05/29 09:03:35;;;;;;;1.85;1.05;;;;;;;;;;5044101;28;20137;-73
2022/05/29 09:06:07;;;;;;;4.95;2.03;;;;;;;;;;5029670;28;20037;-71
2022/05/29 09:08:32;;;;;;;3.47;1.30;;;;;;;;;;5013104;28;20381;-72
2022/05/29 09:11:01;;;;;;;7.75;2.45;;;;;;;;;;4997395;28;20038;-71
2022/05/29 09:13:32;;;;;;;0.35;0.35;;;;;;;;;;5031374;28;20040;-74
2022/05/29 09:16:01;;;;;;;1.90;0.68;;;;;;;;;;5030957;28;20037;-72
2022/05/29 09:18:29;;;;;;;1.73;0.75;;;;;;;;;;5031057;28;20504;-72
2022/05/29 09:21:01;;;;;;;1.70;1.25;;;;;;;;;;5029753;28;20041;-70
2022/05/29 09:23:29;;;;;;;11.27;2.30;;;;;;;;;;5030526;28;20074;-72
2022/05/29 09:25:55;;;;;;;1.93;0.97;;;;;;;;;;5030819;28;20033;-72
2022/05/29 09:28:35;;;;;;;7.72;1.85;;;;;;;;;;5030810;28;20036;-72
2022/05/29 09:31:05;;;;;;;1.25;0.95;;;;;;;;;;5058766;28;20029;-71
2022/05/29 09:33:30;;;;;;;2.20;0.93;;;;;;;;;;5070422;28;20063;-71
2022/05/29 09:36:00;;;;;;;3.80;1.67;;;;;;;;;;5061341;28;20079;-72
2022/05/29 09:38:45;;;;;;;10.35;2.33;;;;;;;;;;5050338;28;20503;-71
2022/05/29 09:41:33;;;;;;;7.75;5.00;;;;;;;;;;5050594;28;20041;-71
2022/05/29 09:44:04;;;;;;;2.92;0.80;;;;;;;;;;5044491;28;20029;-70
2022/05/29 09:46:37;;;;;;;2.05;0.98;;;;;;;;;;5039151;28;20560;-70
2022/05/29 09:52:01;;;;;;;9.48;2.10;;;;;;;;;;5030372;28;20033;-70
2022/05/29 09:54:37;;;;;;;6.63;2.40;;;;;;;;;;5030212;28;20021;-71
2022/05/29 09:57:06;;;;;;;1.88;1.40;;;;;;;;;;5030237;28;20079;-71
2022/05/29 09:59:35;;;;;;;5.35;2.35;;;;;;;;;;5029411;28;20084;-70
2022/05/29 10:02:01;;;;;;;3.15;0.98;;;;;;;;;;5037169;28;20048;-73
2022/05/29 10:04:37;;;;;;;0.88;0.50;;;;;;;;;;5043738;28;20125;-71
2022/05/29 10:07:21;;;;;;;6.68;1.35;;;;;;;;;;5037148;28;20044;-72
2022/05/29 10:10:00;;;;;;;2.28;1.48;;;;;;;;;;5043917;28;20043;-72
2022/05/29 10:12:45;;;;;;;5.47;2.20;;;;;;;;;;5033553;28;20040;-72
2022/05/29 10:15:26;;;;;;;2.40;1.33;;;;;;;;;;5028913;28;20030;-73
2022/05/29 10:17:56;;;;;;;8.60;1.42;;;;;;;;;;5036974;28;20447;-72
2022/05/29 10:20:35;;;;;;;4.40;2.55;;;;;;;;;;5063213;28;20058;-71
2022/05/29 10:23:05;;;;;;;0.40;0.40;;;;;;;;;;5069455;28;20048;-72
2022/05/29 10:25:36;;;;;;;11.27;2.92;;;;;;;;;;5051998;28;20037;-72
2022/05/29 10:28:14;;;;;;;2.92;1.27;;;;;;;;;;5024169;28;20503;-72
2022/05/29 10:30:47;;;;;;;4.55;1.75;;;;;;;;;;5043000;28;20041;-72
2022/05/29 10:33:18;;;;;;;0.95;0.73;;;;;;;;;;5058454;28;20029;-72
2022/05/29 10:35:43;;;;;;;7.38;2.08;;;;;;;;;;5054115;28;20044;-73
2022/05/29 10:38:14;;;;;;;4.80;2.50;;;;;;;;;;5059210;28;20032;-71
2022/05/29 10:40:41;;;;;;;12.13;2.83;;;;;;;;;;5037855;28;20109;-71
2022/05/29 10:43:06;;;;;;;12.77;2.58;;;;;;;;;;5060950;28;20065;-72
2022/05/29 10:45:35;;;;;;;4.25;1.20;;;;;;;;;;5049347;28;20325;-71
2022/05/29 10:48:03;;;;;;;3.95;1.55;;;;;;;;;;5049259;28;20389;-72
2022/05/29 10:50:35;;;;;;;1.70;1.40;;;;;;;;;;5041919;28;20041;-71
2022/05/29 10:53:09;;;;;;;3.97;1.52;;;;;;;;;;5029750;28;20284;-71
2022/05/29 10:55:41;;;;;;;6.50;1.63;;;;;;;;;;5039486;28;20548;-71
2022/05/29 10:58:10;;;;;;;9.95;2.53;;;;;;;;;;5043092;28;20044;-73
2022/05/29 11:00:41;;;;;;;11.80;2.45;;;;;;;;;;5033960;28;20030;-72
2022/05/29 11:03:21;;;;;;;6.65;0.90;;;;;;;;;;5035995;28;20052;-70
2022/05/29 11:06:08;;;;;;;6.85;2.35;;;;;;;;;;5026241;28;20152;-72
2022/05/29 11:08:48;;;;;;;1.38;0.75;;;;;;;;;;5026885;28;20435;-71
2022/05/29 11:11:32;;;;;;;0.35;0.35;;;;;;;;;;5042255;28;20042;-74
2022/05/29 11:14:18;;;;;;;3.42;1.67;;;;;;;;;;5011237;28;20798;-75
2022/05/29 11:16:44;;;;;;;4.38;2.13;;;;;;;;;;5028927;28;20041;-72
2022/05/29 11:19:30;;;;;;;4.07;1.40;;;;;;;;;;5029244;28;20393;-72
2022/05/29 11:22:13;;;;;;;12.05;2.63;;;;;;;;;;5056034;28;20048;-72
2022/05/29 11:24:48;;;;;;;4.10;1.67;;;;;;;;;;5056710;28;20028;-71
2022/05/29 11:27:23;;;;;;;9.52;2.90;;;;;;;;;;5055183;28;20033;-71
2022/05/29 11:29:55;;;;;;;4.55;1.73;;;;;;;;;;5057385;28;20028;-72
2022/05/29 11:32:30;;;;;;;7.63;2.53;;;;;;;;;;5049529;28;20365;-74
2022/05/29 11:35:11;;;;;;;0.50;0.50;;;;;;;;;;5030820;28;20435;-72
2022/05/29 11:37:42;;;;;;;1.77;0.68;;;;;;;;;;5049838;28;20029;-76
2022/05/29 11:40:08;;;;;;;2.10;1.90;;;;;;;;;;5055405;28;20476;-76
2022/05/29 11:42:52;;;;;;;9.52;2.40;;;;;;;;;;5055388;28;20036;-76
2022/05/29 11:45:20;;;;;;;4.47;1.05;;;;;;;;;;5048679;28;20033;-76
2022/05/29 11:53:25;;;;;;;3.53;1.50;;;;;;;;;;5054172;28;20060;-74
2022/05/29 11:55:53;;;;;;;1.85;1.20;;;;;;;;;;5029284;28;20041;-74
2022/05/29 11:58:21;;;;;;;6.53;2.97;;;;;;;;;;5043106;28;20519;-73
2022/05/29 12:00:58;;;;;;;4.88;1.88;;;;;;;;;;5048108;28;20545;-74
2022/05/29 12:03:36;;;;;;;4.50;1.23;;;;;;;;;;5054277;28;20346;-73
2022/05/29 12:06:14;;;;;;;9.60;2.15;;;;;;;;;;5052241;28;20046;-74
2022/05/29 12:08:57;;;;;;;3.05;2.75;;;;;;;;;;5048280;28;20116;-73
2022/05/29 12:11:38;;;;;;;1.15;1.05;;;;;;;;;;5047825;28;20045;-73
2022/05/29 12:14:07;;;;;;;3.63;1.17;;;;;;;;;;5057293;28;20072;-74
2022/05/29 12:16:33;;;;;;;0.50;0.50;;;;;;;;;;5056791;28;20020;-73
2022/05/29 12:19:03;;;;;;;2.20;1.05;;;;;;;;;;5030602;28;20530;-72
2022/05/29 12:21:33;;;;;;;0.98;0.60;;;;;;;;;;5029880;28;20373;-73
2022/05/29 12:24:00;;;;;;;3.85;1.20;;;;;;;;;;5051190;28;20037;-73
2022/05/29 12:26:28;;;;;;;1.08;0.55;;;;;;;;;;5051538;28;20037;-73
2022/05/29 12:29:13;;;;;;;0.37;0.30;;;;;;;;;;5032957;28;20041;-73
2022/05/29 12:31:40;;;;;;;3.60;0.80;;;;;;;;;;5051677;28;20033;-73
2022/05/29 12:34:06;;;;;;;0.68;0.32;;;;;;;;;;5033486;28;20021;-73
2022/05/29 12:36:31;;;;;;;3.30;0.85;;;;;;;;;;5033961;28;20041;-73
2022/05/29 12:38:57;;;;;;;0.85;0.75;;;;;;;;;;5051692;28;20036;-74
2022/05/29 12:41:40;;;;;;;0.85;0.73;;;;;;;;;;5051327;28;20044;-73
2022/05/29 12:44:13;;;;;;;2.33;0.80;;;;;;;;;;5044034;28;20028;-72
2022/05/29 12:46:39;;;;;;;0.88;0.88;;;;;;;;;;5039710;28;20060;-73
2022/05/29 12:49:31;;;;;;;7.38;0.93;;;;;;;;;;5008059;28;20065;-73
2022/05/29 12:52:05;;;;;;;4.22;1.25;;;;;;;;;;5030754;28;20509;-73
2022/05/29 12:54:36;;;;;;;11.90;3.10;;;;;;;;;;5031285;28;20077;-73
2022/05/29 12:57:08;;;;;;;2.60;0.63;;;;;;;;;;5031228;28;20071;-73
2022/05/29 12:59:34;;;;;;;6.65;2.10;;;;;;;;;;5031041;28;20030;-72
2022/05/29 13:01:59;;;;;;;2.20;0.50;;;;;;;;;;5040494;28;20041;-74
2022/05/29 13:04:25;;;;;;;17.83;0.95;;;;;;;;;;5047934;28;20365;-73
2022/05/29 13:06:56;;;;;;;2.67;0.88;;;;;;;;;;5043505;28;20374;-74
2022/05/29 13:09:40;;;;;;;11.35;2.60;;;;;;;;;;5042209;28;20057;-74
2022/05/29 13:12:11;;;;;;;3.97;1.00;;;;;;;;;;5032722;28;20037;-79
2022/05/29 13:14:37;;;;;;;7.15;1.40;;;;;;;;;;5053377;28;20473;-71
2022/05/29 13:17:10;;;;;;;3.13;1.55;;;;;;;;;;5044857;28;20079;-71
2022/05/29 13:19:53;;;;;;;2.88;1.75;;;;;;;;;;5050762;28;20036;-73
2022/05/29 13:22:18;;;;;;;5.28;2.17;;;;;;;;;;5049552;28;20045;-70
2022/05/29 13:24:46;;;;;;;5.80;1.95;;;;;;;;;;5049669;28;20035;-70
2022/05/29 13:27:18;;;;;;;5.88;0.75;;;;;;;;;;5050432;28;20037;-73
2022/05/29 13:29:47;;;;;;;4.78;1.00;;;;;;;;;;5051799;28;20041;-69
2022/05/29 13:32:13;;;;;;;2.83;1.42;;;;;;;;;;5050456;28;20060;-73
2022/05/29 13:34:42;;;;;;;0.10;0.10;;;;;;;;;;5043711;28;20076;-73
2022/05/29 13:37:28;;;;;;;9.02;2.10;;;;;;;;;;5034906;28;20041;-74
2022/05/29 13:39:53;;;;;;;0.77;0.77;;;;;;;;;;5020202;28;20053;-72
2022/05/29 13:42:45;;;;;;;16.00;2.03;;;;;;;;;;5030726;28;20539;-73
2022/05/29 13:45:23;;;;;;;4.68;1.85;;;;;;;;;;5027511;28;20144;-74
2022/05/29 13:47:51;;;;;;;9.00;4.75;;;;;;;;;;5030619;28;20025;-74
2022/05/29 13:50:22;;;;;;;3.45;1.23;;;;;;;;;;5030492;28;20354;-73
2022/05/29 13:53:00;;;;;;;4.53;1.02;;;;;;;;;;5030706;28;20041;-72
2022/05/29 13:55:33;;;;;;;0.93;0.75;;;;;;;;;;5030684;28;20032;-72
2022/05/29 14:06:40;;;;;;;0.63;0.63;;;;;;;;;;5059302;28;20033;-74
2022/05/29 14:09:06;;;;;;;2.22;1.23;;;;;;;;;;5057447;28;20041;-74
2022/05/29 14:11:44;;;;;;;1.95;1.05;;;;;;;;;;5058135;28;20185;-74
2022/05/29 14:14:28;;;;;;;1.33;0.63;;;;;;;;;;5039993;28;20033;-73
2022/05/29 14:16:54;;;;;;;0.25;0.25;;;;;;;;;;5060401;28;20028;-72
2022/05/29 14:19:21;;;;;;;0.45;0.30;;;;;;;;;;5059028;28;20033;-74
2022/05/29 14:22:04;;;;;;;7.82;2.17;;;;;;;;;;5058436;28;20039;-73
2022/05/29 14:24:42;;;;;;;5.38;1.73;;;;;;;;;;5041607;28;20086;-73
2022/05/29 14:27:19;;;;;;;0.20;0.20;;;;;;;;;;5041547;28;20440;-72
2022/05/29 14:29:51;;;;;;;4.95;1.55;;;;;;;;;;5056101;28;20032;-75
2022/05/29 14:32:17;;;;;;;16.15;0.80;;;;;;;;;;5049109;28;20069;-74
2022/05/29 14:34:43;;;;;;;9.95;1.27;;;;;;;;;;5049612;28;20039;-73
2022/05/29 14:37:27;;;;;;;0.30;0.30;;;;;;;;;;5049424;28;20533;-73
2022/05/29 14:40:12;;;;;;;1.13;0.52;;;;;;;;;;5049319;28;20542;-73
2022/05/29 14:42:40;;;;;;;0.30;0.30;;;;;;;;;;5041477;28;20055;-74
2022/05/29 14:45:29;;;;;;;0.52;0.35;;;;;;;;;;5054885;28;20031;-74
2022/05/29 14:48:01;;;;;;;0.85;0.50;;;;;;;;;;5057915;28;20397;-74
2022/05/29 14:50:35;;;;;;;0.30;0.30;;;;;;;;;;5055082;28;20031;-73
2022/05/29 14:53:10;;;;;;;3.03;0.90;;;;;;;;;;5061573;28;20042;-73
2022/05/29 14:55:57;;;;;;;5.03;0.68;;;;;;;;;;5050645;28;20083;-73
2022/05/29 14:58:30;;;;;;;0.20;0.20;;;;;;;;;;5051272;28;20033;-73
2022/05/29 15:00:56;;;;;;;2.47;0.90;;;;;;;;;;5048976;28;20099;-73
2022/05/29 15:03:26;;;;;;;0.40;0.25;;;;;;;;;;5048263;28;20029;-74
2022/05/29 15:05:53;;;;;;;2.28;1.00;;;;;;;;;;5048678;28;20033;-74
2022/05/29 15:11:18;;;;;;;0.82;0.57;;;;;;;;;;5049110;28;20065;-73
2022/05/29 15:14:02;;;;;;;3.33;1.00;;;;;;;;;;5047214;28;20040;-73
2022/05/29 15:16:44;;;;;;;1.40;0.60;;;;;;;;;;5048498;28;20068;-73
2022/05/29 15:25:08;;;;;;;0.52;0.32;;;;;;;;;;5048873;28;20041;-74
2022/05/29 15:27:33;;;;;;;1.88;0.80;;;;;;;;;;5031082;28;20086;-74
2022/05/29 15:29:59;;;;;;;3.78;0.85;;;;;;;;;;5048589;28;20037;-74
2022/05/29 15:32:27;;;;;;;1.13;0.70;;;;;;;;;;5030997;28;20033;-74
2022/05/29 15:35:18;;;;;;;5.78;1.52;;;;;;;;;;5030915;28;20545;-74
2022/05/29 15:38:00;;;;;;;0.80;0.47;;;;;;;;;;5048456;28;20492;-75
2022/05/29 15:40:44;;;;;;;1.20;0.43;;;;;;;;;;5048496;28;20033;-74
2022/05/29 15:43:12;;;;;;;2.35;1.00;;;;;;;;;;5048524;28;20032;-73
2022/05/29 15:45:37;;;;;;;2.30;0.65;;;;;;;;;;5030196;28;20045;-74
2022/05/29 15:48:03;;;;;;;3.83;0.82;;;;;;;;;;5029315;28;20510;-75
2022/05/29 15:50:52;;;;;;;24.23;5.18;;;;;;;;;;5029202;28;20033;-75